Terminal Aerodrome Forecast
Issued by NWS

Home | Current Version | Previous Version | Text Only | Print | Product List | Glossary On
Versions: 1 2 3 4 5 6 7 8 9 10 11 12 13 14
682
FTUS42 KMHX 282325
TAFOAJ
TAF
KOAJ 282325Z 2900/2924 19010KT P6SM SKC
     FM290600 20005KT P6SM SCT004 BKN010
     FM291000 21005KT P6SM BKN004
     FM291200 21005KT P6SM SCT004 BKN007
     FM291400 21010KT P6SM SCT080
      AMD LTD TO CLD VIS AND WIND=

USA.gov is the U.S. government's official web portal to all federal, state and local government web resources and services.